Terminal Aerodrome Forecast
Issued by NWS Charleston, WV

Current Version | Previous Version | Graphics & Text | Print | Product List | Glossary On
Versions: 1 2 3 4 5 6 7 8 9 10 11 12 13 14 15 16 17 18 19 20 21 22 23 24 25 26
000
FTUS41 KRLX 270400 AAB
TAFBKW
TAF AMD
KBKW 270407Z 2704/2724 30009KT P6SM OVC005
      TEMPO 2704/2706 4SM -SN BR
     FM270700 31009KT 5SM -SN OVC012
     FM271200 32008KT 6SM -SN BKN013
     FM272000 32009KT P6SM OVC007=

USA.gov is the U.S. government's official web portal to all federal, state and local government web resources and services.